createdAt,value
2019-05-29T00:00:05.729Z,80.87
2019-05-29T00:02:34.465Z,81.45
2019-05-29T00:05:03.543Z,81.92
2019-05-29T00:07:32.102Z,81.80
2019-05-29T00:10:00.734Z,82.39
2019-05-29T00:12:29.262Z,82.32
2019-05-29T00:14:57.823Z,82.57
2019-05-29T00:17:26.314Z,82.43
2019-05-29T00:19:55.102Z,82.72
2019-05-29T00:22:23.730Z,83.18
2019-05-29T00:24:52.217Z,83.34
2019-05-29T00:27:20.751Z,83.87
2019-05-29T00:29:49.398Z,84.55
2019-05-29T00:32:18.015Z,84.81
2019-05-29T00:34:46.604Z,84.51
2019-05-29T00:37:15.102Z,84.08
2019-05-29T00:39:43.770Z,84.28
2019-05-29T00:42:13.241Z,84.47
2019-05-29T00:44:42.696Z,84.11
2019-05-29T00:47:11.542Z,84.20
2019-05-29T00:49:40.213Z,84.46
2019-05-29T00:52:09.841Z,84.64
2019-05-29T00:54:38.624Z,85.38
2019-05-29T00:57:07.360Z,85.67
2019-05-29T00:59:36.940Z,86.15
2019-05-29T01:02:05.692Z,86.34
2019-05-29T01:04:34.319Z,86.67
2019-05-29T01:07:02.968Z,87.11
2019-05-29T01:09:31.501Z,87.91
2019-05-29T01:12:00.069Z,88.19
2019-05-29T01:14:28.566Z,87.83
2019-05-29T01:16:57.257Z,88.18
2019-05-29T01:19:25.883Z,88.14
2019-05-29T01:21:55.613Z,89.03
2019-05-29T01:24:24.884Z,89.11
2019-05-29T01:26:53.618Z,89.47
2019-05-29T01:29:23.290Z,89.53
2019-05-29T01:31:52.057Z,89.69
2019-05-29T01:34:21.905Z,89.74
2019-05-29T01:36:50.485Z,89.27
2019-05-29T01:39:19.369Z,89.52
2019-05-29T01:41:48.060Z,89.90
2019-05-29T01:44:17.390Z,89.84
2019-05-29T01:46:46.005Z,90.76
2019-05-29T01:49:16.017Z,90.86
2019-05-29T01:51:44.749Z,91.29
2019-05-29T01:54:13.436Z,91.05
2019-05-29T01:56:42.059Z,91.23
2019-05-29T01:59:10.692Z,91.31
2019-05-29T02:01:39.366Z,91.15
2019-05-29T02:04:08.001Z,91.48
2019-05-29T02:06:36.636Z,91.23
2019-05-29T02:09:06.905Z,90.41
2019-05-29T02:11:35.552Z,90.69
2019-05-29T02:14:04.175Z,90.10
2019-05-29T02:16:32.846Z,90.18
2019-05-29T02:19:01.342Z,90.44
2019-05-29T02:21:30.020Z,91.23
2019-05-29T02:23:58.698Z,91.31
2019-05-29T02:26:27.253Z,91.61
2019-05-29T02:28:55.757Z,92.82
2019-05-29T02:31:26.596Z,93.25
2019-05-29T02:33:54.739Z,93.57
2019-05-29T02:36:24.546Z,94.10
2019-05-29T02:38:53.760Z,94.64
2019-05-29T02:41:24.219Z,94.92
2019-05-29T02:43:52.610Z,94.97
2019-05-29T02:46:21.753Z,95.29
2019-05-29T02:48:50.787Z,95.56
2019-05-29T02:51:19.808Z,96.28
2019-05-29T02:53:48.548Z,96.31
2019-05-29T02:56:17.119Z,96.12
2019-05-29T02:58:46.148Z,96.33
2019-05-29T03:01:14.825Z,96.14
2019-05-29T03:03:43.382Z,95.96
2019-05-29T03:06:13.020Z,96.07
2019-05-29T03:08:41.891Z,95.96
2019-05-29T03:11:10.541Z,95.39
2019-05-29T03:13:39.209Z,94.26
2019-05-29T03:16:12.097Z,91.66
2019-05-29T03:18:38.226Z,88.19
2019-05-29T03:21:06.868Z,83.48
2019-05-29T03:23:36.380Z,81.05
2019-05-29T03:26:05.385Z,80.95
2019-05-29T03:28:34.910Z,81.22
2019-05-29T03:31:04.169Z,80.87
2019-05-29T03:33:41.042Z,81.89
2019-05-29T03:36:03.133Z,81.91
2019-05-29T03:38:32.672Z,83.12
2019-05-29T03:41:01.811Z,83.54
2019-05-29T03:43:31.175Z,82.79
2019-05-29T03:46:00.836Z,83.01
2019-05-29T03:48:29.861Z,82.99
2019-05-29T03:50:58.634Z,82.36
2019-05-29T03:53:27.243Z,81.48
2019-05-29T03:55:56.240Z,80.37
2019-05-29T03:58:26.265Z,79.43
2019-05-29T04:00:54.998Z,78.68
2019-05-29T04:03:23.646Z,78.67
2019-05-29T04:05:52.230Z,78.24
2019-05-29T04:08:20.833Z,77.64
2019-05-29T04:10:50.055Z,76.67
2019-05-29T04:13:18.687Z,71.21
2019-05-29T04:15:47.390Z,63.67
2019-05-29T04:18:19.731Z,60.15
2019-05-29T04:20:51.259Z,54.48
2019-05-29T04:23:20.532Z,50.35
2019-05-29T04:25:51.174Z,48.64
2019-05-29T04:28:20.812Z,47.02
2019-05-29T04:30:49.339Z,46.57
2019-05-29T04:33:17.855Z,48.87
2019-05-29T04:35:46.367Z,51.17
2019-05-29T04:38:15.054Z,54.27
2019-05-29T04:40:43.691Z,53.54
2019-05-29T04:43:12.315Z,54.42
2019-05-29T04:45:40.898Z,54.06
2019-05-29T04:48:09.545Z,54.76
2019-05-29T04:50:40.324Z,55.87
2019-05-29T04:53:08.498Z,56.63
2019-05-29T04:55:37.100Z,53.55
2019-05-29T04:58:05.734Z,48.44
2019-05-29T05:00:35.176Z,43.89
2019-05-29T05:03:03.763Z,41.11
2019-05-29T05:05:33.264Z,39.26
2019-05-29T05:08:02.016Z,39.67
2019-05-29T05:10:40.594Z,37.15
2019-05-29T05:13:08.865Z,35.66
2019-05-29T05:15:38.136Z,33.05
2019-05-29T05:18:07.503Z,32.67
2019-05-29T05:20:36.441Z,31.48
2019-05-29T05:23:05.407Z,31.67
2019-05-29T05:25:34.272Z,33.63
2019-05-29T05:28:02.934Z,33.72
2019-05-29T05:30:32.358Z,32.05
2019-05-29T05:33:01.106Z,31.50
2019-05-29T05:35:30.742Z,31.19
2019-05-29T05:37:59.308Z,30.81
2019-05-29T05:40:27.950Z,31.20
2019-05-29T05:42:56.641Z,31.14
2019-05-29T05:45:25.276Z,32.66
2019-05-29T05:47:57.779Z,33.01
2019-05-29T05:50:24.533Z,32.42
2019-05-29T05:52:53.287Z,33.69
2019-05-29T05:55:21.895Z,33.11
2019-05-29T05:57:50.503Z,34.06
2019-05-29T06:00:31.698Z,31.78
2019-05-29T06:03:00.626Z,34.50
2019-05-29T06:05:29.260Z,33.29
2019-05-29T06:07:57.817Z,31.44
2019-05-29T06:10:26.413Z,29.82
2019-05-29T06:12:55.044Z,29.01
2019-05-29T06:15:23.610Z,28.85
2019-05-29T06:18:16.904Z,28.45
2019-05-29T06:20:22.679Z,28.26
2019-05-29T06:22:51.252Z,32.95
2019-05-29T06:25:20.088Z,33.80
2019-05-29T06:27:48.716Z,32.15
2019-05-29T06:30:19.266Z,30.78
2019-05-29T06:32:47.932Z,30.61
2019-05-29T06:35:17.146Z,30.89
2019-05-29T06:37:46.287Z,30.67
2019-05-29T06:40:18.016Z,30.79
2019-05-29T06:42:46.531Z,30.76
2019-05-29T06:45:18.161Z,29.91
2019-05-29T06:47:46.862Z,28.65
2019-05-29T06:50:15.496Z,29.40
2019-05-29T06:52:43.991Z,31.58
2019-05-29T06:55:12.726Z,31.99
2019-05-29T06:57:42.612Z,32.13
2019-05-29T07:00:11.723Z,33.13
2019-05-29T07:02:40.884Z,31.75
2019-05-29T07:05:09.592Z,30.50
2019-05-29T07:07:38.374Z,29.37
2019-05-29T07:10:07.506Z,28.53
2019-05-29T07:12:36.390Z,28.04
2019-05-29T07:15:07.047Z,28.58
2019-05-29T07:17:36.315Z,28.13
2019-05-29T07:20:06.950Z,27.46
2019-05-29T07:22:36.892Z,26.45
2019-05-29T07:25:06.896Z,27.55
2019-05-29T07:27:36.715Z,28.23
2019-05-29T07:30:06.797Z,28.36
2019-05-29T07:32:35.474Z,28.45
2019-05-29T07:35:04.873Z,30.66
2019-05-29T07:37:33.414Z,31.34
2019-05-29T07:40:01.927Z,30.62
2019-05-29T07:42:30.567Z,30.49
2019-05-29T07:44:59.245Z,30.78
2019-05-29T07:47:27.747Z,32.53
2019-05-29T07:49:56.237Z,31.29
2019-05-29T07:52:24.930Z,31.28
2019-05-29T07:54:53.584Z,31.83
2019-05-29T07:57:22.219Z,31.04
2019-05-29T07:59:50.906Z,30.83
2019-05-29T08:02:19.551Z,29.63
2019-05-29T08:04:49.767Z,29.64
2019-05-29T08:07:18.635Z,28.27
2019-05-29T08:09:47.866Z,27.78
2019-05-29T08:12:16.608Z,27.40
2019-05-29T08:14:45.823Z,26.05
2019-05-29T08:17:14.520Z,25.74
2019-05-29T08:20:00.618Z,26.38
2019-05-29T08:22:13.491Z,27.39
2019-05-29T08:24:42.662Z,27.99
2019-05-29T08:27:11.278Z,29.97
2019-05-29T08:29:40.596Z,29.86
2019-05-29T08:32:09.252Z,31.26
2019-05-29T08:34:37.820Z,31.05
2019-05-29T08:37:07.583Z,32.07
2019-05-29T08:39:37.133Z,33.92
2019-05-29T08:42:22.681Z,34.92
2019-05-29T08:44:36.100Z,36.97
2019-05-29T08:47:10.577Z,37.44
2019-05-29T08:49:35.103Z,37.65
2019-05-29T08:52:11.785Z,36.53
2019-05-29T08:54:34.065Z,36.07
2019-05-29T08:57:02.584Z,34.11
2019-05-29T08:59:31.193Z,34.26
2019-05-29T09:01:59.856Z,33.32
2019-05-29T09:04:28.856Z,33.94
2019-05-29T09:06:57.400Z,34.59
2019-05-29T09:09:26.082Z,35.03
2019-05-29T09:11:54.714Z,37.25
2019-05-29T09:14:23.444Z,36.12
2019-05-29T09:16:52.095Z,36.05
2019-05-29T09:19:21.152Z,34.39
2019-05-29T09:21:51.181Z,32.94
2019-05-29T09:24:20.836Z,33.19
2019-05-29T09:26:49.463Z,34.22
2019-05-29T09:29:20.588Z,33.24
2019-05-29T09:31:48.476Z,32.23
2019-05-29T09:34:18.624Z,31.66
2019-05-29T09:36:47.590Z,31.35
2019-05-29T09:39:16.739Z,31.13
2019-05-29T09:41:46.387Z,30.63
2019-05-29T09:44:31.111Z,30.78
2019-05-29T09:46:45.275Z,31.02
2019-05-29T09:49:13.938Z,30.93
2019-05-29T09:51:42.512Z,32.42
2019-05-29T09:54:11.057Z,33.06
2019-05-29T09:56:39.762Z,32.59
2019-05-29T09:59:08.447Z,32.61
2019-05-29T10:01:37.094Z,33.36
2019-05-29T10:04:06.214Z,33.92
2019-05-29T10:06:35.120Z,35.18
2019-05-29T10:09:05.450Z,35.44
2019-05-29T10:11:34.074Z,35.67
2019-05-29T10:14:03.492Z,36.58
2019-05-29T10:16:33.148Z,36.14
2019-05-29T10:19:03.085Z,35.75
2019-05-29T10:21:40.082Z,36.52
2019-05-29T10:24:04.190Z,37.15
2019-05-29T10:26:33.009Z,37.33
2019-05-29T10:29:08.307Z,37.33
2019-05-29T10:31:31.799Z,36.71
2019-05-29T10:34:00.456Z,34.87
2019-05-29T10:36:29.109Z,33.32
2019-05-29T10:38:57.727Z,32.64
2019-05-29T10:41:26.338Z,32.93
2019-05-29T10:43:54.986Z,32.75
2019-05-29T10:46:23.624Z,32.13
2019-05-29T10:48:54.314Z,30.20
2019-05-29T10:51:22.589Z,29.70
2019-05-29T10:53:53.075Z,28.86
2019-05-29T10:56:21.832Z,28.84
2019-05-29T10:58:56.411Z,32.53
2019-05-29T11:01:20.783Z,32.32
2019-05-29T11:03:49.427Z,31.78
2019-05-29T11:06:17.966Z,31.35
2019-05-29T11:08:47.887Z,31.01
2019-05-29T11:11:16.677Z,30.47
2019-05-29T11:13:46.634Z,30.46
2019-05-29T11:16:15.342Z,31.14
2019-05-29T11:18:44.023Z,30.48
2019-05-29T11:21:12.656Z,30.79
2019-05-29T11:23:41.292Z,33.03
2019-05-29T11:26:09.820Z,34.18
2019-05-29T11:28:38.453Z,34.33
2019-05-29T11:31:07.090Z,34.88
2019-05-29T11:33:35.688Z,35.42
2019-05-29T11:36:12.235Z,34.87
2019-05-29T11:38:34.814Z,35.30
2019-05-29T11:41:23.646Z,35.20
2019-05-29T11:43:33.907Z,35.20
2019-05-29T11:46:02.547Z,34.81
2019-05-29T11:48:31.224Z,33.64
2019-05-29T11:50:59.915Z,33.50
2019-05-29T11:53:28.475Z,33.57
2019-05-29T11:55:57.753Z,33.30
2019-05-29T11:58:31.102Z,32.10
2019-05-29T12:00:57.195Z,32.18
2019-05-29T12:03:25.809Z,31.86
2019-05-29T12:05:55.354Z,31.56
2019-05-29T12:08:24.099Z,31.76
2019-05-29T12:10:53.185Z,30.85
2019-05-29T12:13:21.855Z,30.85
2019-05-29T12:15:51.487Z,30.86
2019-05-29T12:18:24.323Z,31.44
2019-05-29T12:20:51.967Z,30.83
2019-05-29T12:23:26.405Z,30.18
2019-05-29T12:26:11.658Z,29.61
2019-05-29T12:28:21.336Z,31.28
2019-05-29T12:30:49.974Z,31.96
2019-05-29T12:33:18.667Z,33.14
2019-05-29T12:35:50.167Z,34.03
2019-05-29T12:38:17.640Z,32.99
2019-05-29T12:40:46.285Z,33.45
2019-05-29T12:43:26.690Z,33.60
2019-05-29T12:45:45.267Z,33.29
2019-05-29T12:48:15.610Z,32.07
2019-05-29T12:50:44.205Z,30.44
2019-05-29T12:53:28.953Z,30.58
2019-05-29T12:55:43.316Z,29.81
2019-05-29T12:58:11.894Z,30.64
2019-05-29T13:00:40.579Z,30.32
2019-05-29T13:03:09.223Z,29.67
2019-05-29T13:05:37.789Z,29.48
2019-05-29T13:08:06.510Z,29.06
2019-05-29T13:10:35.145Z,29.02
2019-05-29T13:13:08.516Z,30.40
2019-05-29T13:15:34.234Z,30.08
2019-05-29T13:18:09.130Z,30.44
2019-05-29T13:20:33.230Z,30.80
2019-05-29T13:23:03.594Z,29.96
2019-05-29T13:25:32.281Z,29.96
2019-05-29T13:28:01.576Z,30.55
2019-05-29T13:30:31.671Z,30.92
2019-05-29T13:33:03.609Z,31.28
2019-05-29T13:35:30.715Z,30.75
2019-05-29T13:37:59.400Z,30.69
2019-05-29T13:40:28.056Z,30.31
2019-05-29T13:42:56.612Z,30.48
2019-05-29T13:45:25.269Z,29.54
2019-05-29T13:47:53.833Z,30.21
2019-05-29T13:50:22.480Z,30.40
2019-05-29T13:52:51.085Z,31.86
2019-05-29T13:55:19.662Z,31.17
2019-05-29T13:57:48.225Z,30.64
2019-05-29T14:00:33.178Z,30.93
2019-05-29T14:02:49.140Z,31.45
2019-05-29T14:05:18.275Z,30.89
2019-05-29T14:07:46.873Z,31.28
2019-05-29T14:10:16.009Z,32.97
2019-05-29T14:12:44.577Z,36.26
2019-05-29T14:15:13.759Z,36.70
2019-05-29T14:17:42.426Z,37.72
2019-05-29T14:20:11.329Z,39.14
2019-05-29T14:22:39.990Z,40.39
2019-05-29T14:25:09.591Z,40.76
2019-05-29T14:27:38.185Z,40.76
2019-05-29T14:30:10.409Z,40.61
2019-05-29T14:32:39.470Z,40.53
2019-05-29T14:35:09.495Z,40.04
2019-05-29T14:37:38.916Z,40.04
2019-05-29T14:40:09.832Z,39.71
2019-05-29T14:42:38.626Z,39.71
2019-05-29T14:45:08.205Z,40.13
2019-05-29T14:47:36.855Z,40.13
2019-05-29T14:50:08.783Z,39.22
2019-05-29T14:52:37.668Z,39.06
2019-05-29T14:55:07.032Z,37.86
2019-05-29T14:57:35.629Z,38.35
2019-05-29T15:00:20.972Z,39.13
2019-05-29T15:02:39.917Z,38.05
2019-05-29T15:05:09.731Z,38.05
2019-05-29T15:07:38.566Z,37.59
2019-05-29T15:10:19.679Z,36.58
2019-05-29T15:12:39.251Z,36.64
2019-05-29T15:15:11.394Z,35.10
2019-05-29T15:17:39.858Z,33.25
2019-05-29T15:20:09.872Z,32.43
2019-05-29T15:22:39.055Z,37.09
2019-05-29T15:25:18.408Z,40.48
2019-05-29T15:27:38.584Z,42.16
2019-05-29T15:30:08.750Z,43.72
2019-05-29T15:32:37.573Z,44.55
2019-05-29T15:35:11.029Z,45.54
2019-05-29T15:37:37.883Z,45.58
2019-05-29T15:40:08.767Z,46.51
2019-05-29T15:42:37.644Z,47.41
2019-05-29T15:45:11.812Z,47.98
2019-05-29T15:47:40.497Z,48.72
2019-05-29T15:50:11.405Z,49.04
2019-05-29T15:52:40.276Z,49.29
2019-05-29T15:55:27.406Z,49.44
2019-05-29T15:57:40.672Z,49.31
2019-05-29T16:00:11.577Z,48.94
2019-05-29T16:02:40.233Z,49.44
2019-05-29T16:05:10.925Z,50.54
2019-05-29T16:07:40.202Z,51.26
2019-05-29T16:10:13.092Z,51.15
2019-05-29T16:12:39.836Z,51.45
2019-05-29T16:15:09.200Z,51.26
2019-05-29T16:17:37.812Z,50.86
2019-05-29T16:20:10.074Z,50.74
2019-05-29T16:22:38.978Z,50.11
2019-05-29T16:25:08.605Z,49.48
2019-05-29T16:27:37.263Z,49.46
2019-05-29T16:30:11.378Z,49.92
2019-05-29T16:32:40.064Z,50.37
2019-05-29T16:35:09.491Z,50.33
2019-05-29T16:37:38.412Z,50.52
2019-05-29T16:40:18.113Z,50.47
2019-05-29T16:42:46.817Z,50.16
2019-05-29T16:45:16.432Z,50.34
2019-05-29T16:47:45.081Z,50.52
2019-05-29T16:50:14.937Z,50.63
2019-05-29T16:52:43.824Z,50.74
2019-05-29T16:55:15.336Z,50.61
2019-05-29T16:57:44.074Z,50.76
2019-05-29T17:00:15.643Z,51.11
2019-05-29T17:02:44.438Z,51.28
2019-05-29T17:05:13.688Z,52.17
2019-05-29T17:07:42.346Z,51.90
2019-05-29T17:10:14.328Z,52.24
2019-05-29T17:12:42.983Z,52.47
2019-05-29T17:15:14.798Z,53.57
2019-05-29T17:17:43.549Z,54.52
2019-05-29T17:20:15.037Z,54.84
2019-05-29T17:22:43.662Z,54.48
2019-05-29T17:25:12.273Z,54.68
2019-05-29T17:27:40.905Z,54.90
2019-05-29T17:30:09.838Z,55.68
2019-05-29T17:32:38.516Z,56.38
2019-05-29T17:35:09.158Z,56.58
2019-05-29T17:37:38.043Z,56.63
2019-05-29T17:40:07.373Z,56.92
2019-05-29T17:42:35.976Z,57.22
2019-05-29T17:45:06.788Z,57.43
2019-05-29T17:47:35.494Z,57.52
2019-05-29T17:50:08.376Z,58.72
2019-05-29T17:52:36.897Z,58.95
2019-05-29T17:55:18.500Z,59.32
2019-05-29T17:57:45.045Z,59.93
2019-05-29T18:00:20.562Z,60.58
2019-05-29T18:02:52.314Z,61.33
2019-05-29T18:05:20.493Z,62.02
2019-05-29T18:07:49.193Z,62.88
2019-05-29T18:10:20.333Z,63.53
2019-05-29T18:12:48.423Z,63.87
2019-05-29T18:15:19.520Z,64.50
2019-05-29T18:17:48.282Z,65.07
2019-05-29T18:20:17.882Z,65.85
2019-05-29T18:22:46.650Z,66.12
2019-05-29T18:25:15.281Z,66.56
2019-05-29T18:27:43.872Z,67.05
2019-05-29T18:30:14.370Z,67.25
2019-05-29T18:32:42.928Z,67.71
2019-05-29T18:35:11.701Z,68.09
2019-05-29T18:37:40.268Z,68.57
2019-05-29T18:40:12.633Z,68.74
2019-05-29T18:42:41.385Z,68.35
2019-05-29T18:45:20.204Z,68.71
2019-05-29T18:47:42.167Z,68.78
2019-05-29T18:50:11.849Z,69.00
2019-05-29T18:52:40.496Z,69.57
2019-05-29T18:55:09.915Z,69.78
2019-05-29T18:57:38.531Z,70.37
2019-05-29T19:00:08.054Z,70.80
2019-05-29T19:02:36.696Z,71.41
2019-05-29T19:05:06.346Z,71.86
2019-05-29T19:07:35.119Z,72.17
2019-05-29T19:10:06.717Z,72.27
2019-05-29T19:12:36.073Z,72.51
2019-05-29T19:15:06.938Z,72.42
2019-05-29T19:17:35.572Z,72.63
2019-05-29T19:20:04.952Z,72.82
2019-05-29T19:22:33.524Z,73.15
2019-05-29T19:25:02.199Z,73.04
2019-05-29T19:27:39.098Z,73.24
2019-05-29T19:30:01.206Z,73.93
2019-05-29T19:32:29.830Z,74.25
2019-05-29T19:34:58.493Z,73.90
2019-05-29T19:37:27.932Z,74.16
2019-05-29T19:39:56.571Z,74.19
2019-05-29T19:42:26.135Z,74.23
2019-05-29T19:44:54.667Z,74.67
2019-05-29T19:47:24.522Z,74.60
2019-05-29T19:49:53.395Z,75.05
2019-05-29T19:52:21.958Z,75.24
2019-05-29T19:54:50.546Z,74.15
2019-05-29T19:57:19.210Z,74.05
2019-05-29T19:59:48.011Z,73.48
2019-05-29T20:02:17.678Z,74.25
2019-05-29T20:04:46.281Z,74.69
2019-05-29T20:07:14.926Z,74.06
2019-05-29T20:09:43.620Z,74.37
2019-05-29T20:12:12.200Z,73.67
2019-05-29T20:14:40.837Z,72.91
2019-05-29T20:17:09.469Z,72.57
2019-05-29T20:19:40.857Z,72.39
2019-05-29T20:22:08.568Z,72.06
2019-05-29T20:24:37.172Z,72.27
2019-05-29T20:27:05.859Z,72.20
2019-05-29T20:29:34.564Z,72.52
2019-05-29T20:32:03.211Z,72.50
2019-05-29T20:34:32.777Z,72.51
2019-05-29T20:37:01.365Z,73.01
2019-05-29T20:39:30.230Z,73.23
2019-05-29T20:41:58.884Z,73.17
2019-05-29T20:44:27.511Z,72.94
2019-05-29T20:46:56.237Z,72.82
2019-05-29T20:49:24.831Z,72.95
2019-05-29T20:51:53.399Z,72.92
2019-05-29T20:54:22.023Z,73.00
2019-05-29T20:56:50.616Z,73.08
2019-05-29T20:59:19.173Z,72.84
2019-05-29T21:01:47.900Z,73.07
2019-05-29T21:04:16.934Z,72.79
2019-05-29T21:06:45.645Z,72.28
2019-05-29T21:09:14.217Z,72.32
2019-05-29T21:11:43.646Z,72.15
2019-05-29T21:14:12.298Z,72.41
2019-05-29T21:16:41.869Z,72.03
2019-05-29T21:19:10.431Z,71.96
2019-05-29T21:21:38.997Z,72.02
2019-05-29T21:24:07.733Z,71.85
2019-05-29T21:26:36.946Z,71.74
2019-05-29T21:29:05.625Z,71.83
2019-05-29T21:31:35.350Z,71.81
2019-05-29T21:34:04.034Z,71.48
2019-05-29T21:36:32.599Z,70.80
2019-05-29T21:39:01.291Z,71.03
2019-05-29T21:41:29.853Z,71.32
2019-05-29T21:43:58.834Z,71.22
2019-05-29T21:46:27.439Z,71.54
2019-05-29T21:48:56.072Z,71.35
2019-05-29T21:51:24.706Z,71.40
2019-05-29T21:53:53.240Z,71.38
2019-05-29T21:56:21.882Z,71.18
2019-05-29T21:59:03.059Z,70.98
2019-05-29T22:01:21.285Z,71.08
2019-05-29T22:03:49.918Z,71.30
2019-05-29T22:06:18.549Z,71.44
2019-05-29T22:08:47.216Z,71.59
2019-05-29T22:11:15.947Z,71.69
2019-05-29T22:13:44.694Z,71.75
2019-05-29T22:16:13.354Z,72.15
2019-05-29T22:18:41.992Z,71.65
2019-05-29T22:21:10.543Z,71.28
2019-05-29T22:23:39.235Z,71.39
2019-05-29T22:26:07.809Z,71.91
2019-05-29T22:28:36.363Z,71.62
2019-05-29T22:31:05.125Z,72.23
2019-05-29T22:33:33.757Z,72.09
2019-05-29T22:36:02.383Z,72.35
2019-05-29T22:38:30.977Z,72.25
2019-05-29T22:40:59.722Z,72.38
2019-05-29T22:43:28.351Z,72.08
2019-05-29T22:45:57.642Z,71.26
2019-05-29T22:48:26.298Z,70.83
2019-05-29T22:50:55.734Z,70.56
2019-05-29T22:53:24.333Z,70.31
2019-05-29T22:55:53.741Z,69.99
2019-05-29T22:58:22.400Z,69.62
2019-05-29T23:00:51.803Z,69.56
2019-05-29T23:03:20.315Z,69.64
2019-05-29T23:05:48.939Z,69.50
2019-05-29T23:08:17.604Z,69.56
2019-05-29T23:10:46.169Z,69.30
2019-05-29T23:13:14.758Z,69.25
2019-05-29T23:15:43.421Z,69.54
2019-05-29T23:18:11.985Z,69.70
2019-05-29T23:20:40.547Z,69.90
2019-05-29T23:23:09.103Z,70.10
2019-05-29T23:25:37.728Z,70.37
2019-05-29T23:28:06.294Z,70.26
2019-05-29T23:30:34.892Z,69.68
2019-05-29T23:33:03.547Z,69.92
2019-05-29T23:35:32.160Z,69.67
2019-05-29T23:38:01.309Z,69.52
2019-05-29T23:40:29.898Z,69.29
2019-05-29T23:42:59.445Z,69.10
2019-05-29T23:45:28.183Z,69.33
2019-05-29T23:47:57.636Z,69.35
2019-05-29T23:50:26.242Z,69.27
2019-05-29T23:52:55.603Z,69.08
2019-05-29T23:55:24.159Z,68.96
2019-05-29T23:57:53.687Z,68.27
